createdAt,value
2022-10-17T00:00:56.286Z,3.90
2022-10-17T00:02:28.411Z,3.90
2022-10-17T00:04:00.559Z,3.91
2022-10-17T00:05:32.667Z,3.89
2022-10-17T00:07:04.664Z,3.89
2022-10-17T00:08:37.523Z,3.91
2022-10-17T00:10:09.620Z,3.90
2022-10-17T00:11:41.706Z,3.87
2022-10-17T00:13:13.718Z,3.83
2022-10-17T00:14:48.852Z,3.81
2022-10-17T00:16:39.019Z,3.85
2022-10-17T00:18:11.002Z,3.80
2022-10-17T00:19:43.044Z,3.83
2022-10-17T00:21:19.592Z,3.94
2022-10-17T00:22:51.824Z,3.94
2022-10-17T00:24:23.799Z,4.01
2022-10-17T00:26:03.532Z,4.08
2022-10-17T00:27:37.029Z,4.09
2022-10-17T00:29:09.030Z,4.09
2022-10-17T00:30:41.125Z,4.13
2022-10-17T00:32:13.160Z,4.12
2022-10-17T00:33:45.736Z,4.10
2022-10-17T00:35:17.855Z,4.08
2022-10-17T00:36:49.829Z,4.07
2022-10-17T00:38:21.800Z,4.12
2022-10-17T00:39:54.818Z,4.13
2022-10-17T00:41:30.964Z,4.15
2022-10-17T00:43:03.097Z,4.14
2022-10-17T00:44:35.005Z,4.12
2022-10-17T00:46:07.631Z,4.09
2022-10-17T00:47:40.050Z,4.03
2022-10-17T00:49:12.981Z,3.99
2022-10-17T00:50:48.382Z,4.00
2022-10-17T00:52:23.823Z,3.97
2022-10-17T00:53:56.301Z,3.92
2022-10-17T00:55:31.923Z,3.90
2022-10-17T00:57:04.454Z,3.83
2022-10-17T00:58:36.535Z,3.82
2022-10-17T01:00:11.792Z,3.91
2022-10-17T01:01:49.496Z,3.96
2022-10-17T01:03:21.530Z,3.98
2022-10-17T01:04:55.897Z,4.00
2022-10-17T01:06:27.936Z,3.99
2022-10-17T01:08:00.117Z,4.00
2022-10-17T01:09:32.139Z,3.99
2022-10-17T01:11:40.422Z,4.07
2022-10-17T01:13:26.249Z,4.01
2022-10-17T01:15:09.987Z,4.01
2022-10-17T01:16:53.209Z,3.98
2022-10-17T01:18:52.403Z,4.00
2022-10-17T01:20:51.703Z,3.96
2022-10-17T01:22:48.204Z,3.91
2022-10-17T01:24:31.773Z,3.85
2022-10-17T01:26:25.053Z,3.81
2022-10-17T01:28:06.698Z,3.77
2022-10-17T01:29:41.433Z,3.75
2022-10-17T01:31:17.356Z,3.73
2022-10-17T01:32:59.417Z,3.79
2022-10-17T01:34:46.035Z,3.79
2022-10-17T01:36:48.713Z,3.86
2022-10-17T01:38:36.172Z,3.94
2022-10-17T01:40:11.646Z,3.91
2022-10-17T01:41:46.742Z,3.90
2022-10-17T01:43:27.953Z,3.90
2022-10-17T01:45:05.147Z,3.93
2022-10-17T01:46:39.365Z,3.95
2022-10-17T01:48:21.213Z,3.95
2022-10-17T01:49:57.654Z,3.93
2022-10-17T01:51:52.628Z,3.94
2022-10-17T01:53:30.626Z,3.91
2022-10-17T01:55:10.122Z,3.85
2022-10-17T01:56:43.343Z,3.80
2022-10-17T01:58:24.264Z,3.79
2022-10-17T01:59:56.731Z,3.76
2022-10-17T02:01:30.434Z,3.76
2022-10-17T02:03:06.139Z,3.73
2022-10-17T02:04:38.149Z,3.64
2022-10-17T02:06:10.262Z,3.66
2022-10-17T02:07:42.650Z,3.67
2022-10-17T02:09:25.695Z,3.69
2022-10-17T02:11:04.939Z,3.67
2022-10-17T02:13:00.491Z,3.64
2022-10-17T02:15:11.397Z,3.62
2022-10-17T02:16:55.140Z,3.63
2022-10-17T02:18:36.295Z,3.66
2022-10-17T02:20:11.352Z,3.67
2022-10-17T02:22:15.231Z,3.69
2022-10-17T02:23:55.426Z,3.66
2022-10-17T02:25:48.943Z,3.63
2022-10-17T02:27:23.664Z,3.58
2022-10-17T02:29:14.115Z,3.58
2022-10-17T02:31:01.257Z,3.66
2022-10-17T02:32:38.523Z,3.63
2022-10-17T02:34:25.004Z,3.66
2022-10-17T02:36:01.280Z,3.68
2022-10-17T02:37:33.540Z,3.64
2022-10-17T02:39:07.013Z,3.70
2022-10-17T02:40:40.287Z,3.69
2022-10-17T02:42:13.764Z,3.69
2022-10-17T02:43:47.049Z,3.75
2022-10-17T02:45:19.737Z,3.74
2022-10-17T02:47:02.417Z,3.75
2022-10-17T02:48:50.868Z,3.76
2022-10-17T02:52:43.786Z,3.82
2022-10-17T02:54:21.387Z,3.79
2022-10-17T02:56:01.342Z,3.81
2022-10-17T02:57:39.097Z,3.76
2022-10-17T02:59:14.803Z,3.74
2022-10-17T03:00:46.975Z,3.70
2022-10-17T03:02:18.973Z,3.62
2022-10-17T03:03:50.988Z,3.61
2022-10-17T03:05:28.217Z,3.60
2022-10-17T03:07:00.525Z,3.55
2022-10-17T03:08:32.615Z,3.52
2022-10-17T03:10:05.339Z,3.51
2022-10-17T03:11:37.428Z,3.48
2022-10-17T03:13:09.511Z,3.48
2022-10-17T03:14:41.562Z,3.44
2022-10-17T03:16:13.588Z,3.38
2022-10-17T03:19:37.503Z,3.36
2022-10-17T03:21:09.567Z,3.34
2022-10-17T03:22:41.573Z,3.29
2022-10-17T03:24:13.811Z,3.27
2022-10-17T03:25:45.817Z,3.26
2022-10-17T03:27:17.970Z,3.25
2022-10-17T03:28:53.509Z,3.23
2022-10-17T03:30:26.774Z,3.19
2022-10-17T03:31:58.735Z,3.17
2022-10-17T03:33:30.666Z,3.09
2022-10-17T03:35:03.359Z,3.09
2022-10-17T03:36:35.362Z,3.07
2022-10-17T03:38:07.499Z,3.02
2022-10-17T03:39:39.501Z,2.98
2022-10-17T03:41:11.751Z,2.97
2022-10-17T03:42:43.748Z,2.95
2022-10-17T03:44:15.968Z,2.90
2022-10-17T03:45:47.960Z,2.96
2022-10-17T03:47:20.190Z,3.00
2022-10-17T03:48:52.301Z,2.98
2022-10-17T03:50:24.313Z,2.97
2022-10-17T03:51:59.432Z,2.96
2022-10-17T03:53:31.571Z,2.98
2022-10-17T03:55:03.765Z,2.98
2022-10-17T03:56:35.738Z,2.97
2022-10-17T03:58:08.106Z,2.93
2022-10-17T03:59:40.149Z,2.92
2022-10-17T04:01:13.799Z,2.91
2022-10-17T04:02:45.989Z,2.87
2022-10-17T04:04:18.233Z,2.88
2022-10-17T04:05:50.214Z,2.84
2022-10-17T04:07:22.259Z,2.86
2022-10-17T04:08:54.275Z,2.84
2022-10-17T04:10:26.376Z,2.76
2022-10-17T04:11:58.399Z,2.76
2022-10-17T04:13:31.119Z,2.72
2022-10-17T04:15:03.214Z,2.69
2022-10-17T04:16:35.321Z,2.64
2022-10-17T04:18:07.432Z,2.60
2022-10-17T04:19:39.474Z,2.60
2022-10-17T04:21:12.210Z,2.62
2022-10-17T04:22:44.191Z,2.61
2022-10-17T04:24:16.406Z,2.59
2022-10-17T04:25:49.185Z,2.58
2022-10-17T04:27:21.358Z,2.56
2022-10-17T04:28:53.563Z,2.54
2022-10-17T04:30:25.700Z,2.58
2022-10-17T04:31:57.838Z,2.64
2022-10-17T04:33:30.255Z,2.64
2022-10-17T04:35:02.566Z,2.63
2022-10-17T04:36:34.725Z,2.60
2022-10-17T04:38:06.775Z,2.55
2022-10-17T04:39:38.864Z,2.51
2022-10-17T04:41:13.304Z,2.54
2022-10-17T04:42:45.412Z,2.54
2022-10-17T04:44:17.616Z,2.51
2022-10-17T04:45:49.824Z,2.52
2022-10-17T04:47:22.402Z,2.49
2022-10-17T04:48:54.725Z,2.47
2022-10-17T04:50:26.797Z,2.44
2022-10-17T04:51:58.821Z,2.45
2022-10-17T04:53:38.548Z,2.49
2022-10-17T04:55:10.636Z,2.44
2022-10-17T04:56:43.055Z,2.43
2022-10-17T04:58:15.132Z,2.44
2022-10-17T04:59:47.225Z,2.46
2022-10-17T05:01:21.871Z,2.48
2022-10-17T05:02:54.319Z,2.48
2022-10-17T05:04:30.377Z,2.50
2022-10-17T05:06:10.087Z,2.59
2022-10-17T05:07:42.168Z,2.59
2022-10-17T05:09:14.595Z,2.66
2022-10-17T05:10:46.661Z,2.71
2022-10-17T05:12:18.984Z,2.73
2022-10-17T05:14:01.854Z,2.78
2022-10-17T05:15:34.435Z,2.77
2022-10-17T05:17:06.533Z,2.80
2022-10-17T05:18:38.591Z,2.82
2022-10-17T05:21:43.495Z,2.90
2022-10-17T05:23:15.667Z,2.91
2022-10-17T05:24:47.837Z,2.95
2022-10-17T05:26:20.831Z,3.03
2022-10-17T05:27:52.938Z,3.04
2022-10-17T05:29:25.046Z,3.12
2022-10-17T05:30:57.424Z,3.16
2022-10-17T05:32:29.768Z,3.23
2022-10-17T05:34:03.410Z,3.31
2022-10-17T05:35:35.544Z,3.33
2022-10-17T05:37:07.551Z,3.38
2022-10-17T05:38:39.603Z,3.47
2022-10-17T05:40:12.111Z,3.56
2022-10-17T05:41:44.369Z,3.65
2022-10-17T05:43:16.589Z,3.73
2022-10-17T05:44:48.665Z,3.80
2022-10-17T05:46:20.785Z,3.88
2022-10-17T05:47:52.792Z,3.96
2022-10-17T05:49:39.801Z,4.05
2022-10-17T05:51:17.179Z,4.17
2022-10-17T05:52:54.042Z,4.30
2022-10-17T05:54:26.798Z,4.35
2022-10-17T05:55:59.956Z,4.43
2022-10-17T05:57:32.028Z,4.48
2022-10-17T05:59:05.703Z,4.57
2022-10-17T06:00:37.898Z,4.62
2022-10-17T06:02:12.800Z,4.75
2022-10-17T06:03:45.133Z,4.78
2022-10-17T06:05:17.598Z,4.83
2022-10-17T06:06:49.779Z,4.91
2022-10-17T06:08:22.342Z,5.00
2022-10-17T06:09:54.333Z,5.05
2022-10-17T06:11:26.532Z,5.15
2022-10-17T06:12:58.516Z,5.24
2022-10-17T06:14:30.643Z,5.31
2022-10-17T06:16:02.713Z,5.39
2022-10-17T06:17:35.703Z,5.46
2022-10-17T06:19:07.788Z,5.56
2022-10-17T06:20:43.892Z,5.65
2022-10-17T06:22:18.157Z,5.76
2022-10-17T06:23:50.330Z,5.84
2022-10-17T06:25:22.559Z,5.97
2022-10-17T06:26:54.759Z,6.08
2022-10-17T06:28:27.102Z,6.20
2022-10-17T06:29:59.104Z,6.31
2022-10-17T06:31:31.786Z,6.40
2022-10-17T06:33:03.918Z,6.51
2022-10-17T06:34:36.022Z,6.62
2022-10-17T06:36:10.414Z,6.75
2022-10-17T06:37:42.493Z,6.84
2022-10-17T06:39:14.693Z,6.97
2022-10-17T06:40:47.030Z,7.07
2022-10-17T06:42:19.591Z,7.19
2022-10-17T06:43:51.732Z,7.30
2022-10-17T06:45:24.411Z,7.42
2022-10-17T06:47:00.143Z,7.56
2022-10-17T06:48:32.571Z,7.63
2022-10-17T06:50:05.066Z,7.73
2022-10-17T06:51:38.034Z,7.86
2022-10-17T06:53:10.125Z,7.96
2022-10-17T06:54:42.081Z,8.06
2022-10-17T06:56:14.388Z,8.18
2022-10-17T06:57:46.325Z,8.26
2022-10-17T06:59:18.672Z,8.37
2022-10-17T07:00:50.856Z,8.46
2022-10-17T07:02:24.449Z,8.57
2022-10-17T07:03:56.365Z,8.73
2022-10-17T07:05:28.408Z,8.75
2022-10-17T07:07:03.700Z,8.87
2022-10-17T07:08:36.233Z,8.96
2022-10-17T07:10:09.736Z,9.05
2022-10-17T07:11:41.792Z,9.18
2022-10-17T07:13:14.446Z,9.22
2022-10-17T07:14:47.692Z,9.30
2022-10-17T07:16:20.068Z,9.39
2022-10-17T07:17:52.347Z,9.47
2022-10-17T07:19:24.559Z,9.55
2022-10-17T07:20:57.085Z,9.64
2022-10-17T07:22:29.507Z,9.71
2022-10-17T07:24:04.133Z,9.82
2022-10-17T07:25:40.087Z,9.93
2022-10-17T07:27:13.830Z,10.00
2022-10-17T07:28:46.489Z,10.11
2022-10-17T07:30:18.936Z,10.13
2022-10-17T07:31:52.492Z,10.21
2022-10-17T07:33:24.756Z,10.29
2022-10-17T07:34:57.077Z,10.36
2022-10-17T07:36:29.605Z,10.45
2022-10-17T07:38:02.247Z,10.52
2022-10-17T07:39:36.007Z,10.55
2022-10-17T07:41:09.636Z,10.62
2022-10-17T07:42:42.061Z,10.66
2022-10-17T07:44:15.718Z,10.76
2022-10-17T07:45:48.063Z,10.83
2022-10-17T07:47:20.414Z,10.90
2022-10-17T07:48:52.812Z,11.02
2022-10-17T07:50:25.883Z,11.09
2022-10-17T07:51:58.354Z,11.17
2022-10-17T07:53:31.080Z,11.26
2022-10-17T07:55:03.724Z,11.33
2022-10-17T07:56:36.857Z,11.42
2022-10-17T07:58:10.036Z,11.52
2022-10-17T07:59:42.557Z,11.60
2022-10-17T08:01:16.039Z,11.67
2022-10-17T08:02:48.939Z,11.75
2022-10-17T08:04:21.339Z,11.83
2022-10-17T08:05:53.722Z,11.89
2022-10-17T08:07:29.377Z,11.98
2022-10-17T08:09:02.250Z,12.06
2022-10-17T08:10:34.592Z,12.14
2022-10-17T08:12:06.813Z,12.19
2022-10-17T08:13:40.750Z,12.24
2022-10-17T08:15:13.184Z,12.31
2022-10-17T08:16:45.698Z,12.39
2022-10-17T08:18:18.693Z,12.45
2022-10-17T08:19:50.733Z,12.52
2022-10-17T08:21:23.145Z,12.60
2022-10-17T08:22:56.014Z,12.68
2022-10-17T08:24:28.153Z,12.72
2022-10-17T08:26:05.167Z,12.83
2022-10-17T08:27:37.404Z,12.89
2022-10-17T08:29:18.907Z,13.02
2022-10-17T08:30:50.936Z,13.06
2022-10-17T08:32:26.240Z,13.14
2022-10-17T08:33:58.629Z,13.18
2022-10-17T08:35:31.004Z,13.28
2022-10-17T08:37:03.295Z,13.34
2022-10-17T08:38:37.587Z,13.41
2022-10-17T08:40:26.031Z,13.48
2022-10-17T08:42:07.249Z,13.52
2022-10-17T08:43:59.745Z,13.63
2022-10-17T08:45:46.828Z,13.65
2022-10-17T08:47:44.946Z,13.69
2022-10-17T08:49:47.568Z,13.77
2022-10-17T08:51:26.532Z,13.88
2022-10-17T08:53:21.810Z,14.03
2022-10-17T08:54:53.903Z,14.07
2022-10-17T08:56:44.486Z,14.17
2022-10-17T08:58:23.218Z,14.24
2022-10-17T08:59:55.654Z,14.29
2022-10-17T09:01:38.661Z,14.38
2022-10-17T09:03:32.596Z,14.49
2022-10-17T09:05:37.869Z,14.61
2022-10-17T09:07:28.821Z,14.69
2022-10-17T09:09:45.032Z,14.74
2022-10-17T09:11:39.070Z,14.81
2022-10-17T09:13:27.751Z,14.91
2022-10-17T09:15:18.226Z,14.95
2022-10-17T09:17:02.278Z,15.07
2022-10-17T09:18:38.377Z,15.10
2022-10-17T09:20:18.822Z,15.20
2022-10-17T09:22:17.968Z,15.31
2022-10-17T09:24:03.973Z,15.37
2022-10-17T09:25:47.329Z,15.48
2022-10-17T09:27:32.137Z,15.55
2022-10-17T09:29:15.459Z,15.62
2022-10-17T09:30:52.367Z,15.67
2022-10-17T09:32:26.146Z,15.74
2022-10-17T09:34:02.257Z,15.82
2022-10-17T09:35:35.158Z,15.83
2022-10-17T09:37:13.816Z,15.89
2022-10-17T09:38:50.478Z,15.96
2022-10-17T09:40:27.371Z,16.05
2022-10-17T09:42:02.693Z,16.11
2022-10-17T09:43:35.015Z,16.14
2022-10-17T09:45:28.830Z,16.29
2022-10-17T09:47:19.984Z,16.36
2022-10-17T09:49:17.899Z,16.46
2022-10-17T09:51:02.528Z,16.48
2022-10-17T09:52:48.229Z,16.57
2022-10-17T09:54:30.465Z,16.62
2022-10-17T09:56:06.014Z,16.65
2022-10-17T09:57:54.225Z,16.73
2022-10-17T09:59:35.782Z,16.80
2022-10-17T10:01:23.735Z,16.86
2022-10-17T10:03:26.499Z,16.95
2022-10-17T10:05:06.439Z,16.97
2022-10-17T10:06:40.722Z,16.99
2022-10-17T10:08:17.807Z,17.05
2022-10-17T10:09:50.628Z,17.11
2022-10-17T10:11:43.556Z,17.16
2022-10-17T10:13:17.665Z,17.21
2022-10-17T10:14:53.363Z,17.25
2022-10-17T10:16:33.493Z,17.37
2022-10-17T10:18:25.690Z,17.44
2022-10-17T10:19:58.152Z,17.42
2022-10-17T10:21:30.483Z,17.46
2022-10-17T10:23:15.061Z,17.56
2022-10-17T10:24:47.431Z,17.54
2022-10-17T10:26:28.273Z,17.58
2022-10-17T10:28:01.624Z,17.62
2022-10-17T10:29:35.290Z,17.66
2022-10-17T10:31:09.439Z,17.73
2022-10-17T10:34:29.905Z,17.84
2022-10-17T10:36:04.938Z,17.88
2022-10-17T10:37:40.772Z,17.89
2022-10-17T10:40:06.316Z,18.00
2022-10-17T10:41:48.710Z,18.07
2022-10-17T10:43:25.206Z,18.08
2022-10-17T10:45:35.889Z,18.12
2022-10-17T10:47:22.237Z,18.15
2022-10-17T10:48:58.925Z,18.14
2022-10-17T10:50:38.144Z,18.20
2022-10-17T10:52:32.225Z,18.22
2022-10-17T10:54:14.971Z,18.22
2022-10-17T10:55:52.555Z,18.24
2022-10-17T10:57:30.183Z,18.26
2022-10-17T11:00:36.827Z,18.29
2022-10-17T11:02:12.463Z,18.34
2022-10-17T11:04:02.703Z,18.30
2022-10-17T11:05:39.002Z,18.25
2022-10-17T11:07:19.847Z,18.30
2022-10-17T11:09:02.254Z,18.35
2022-10-17T11:10:39.779Z,18.37
2022-10-17T11:12:19.116Z,18.44
2022-10-17T11:14:20.557Z,18.46
2022-10-17T11:16:17.211Z,18.50
2022-10-17T11:17:57.419Z,18.48
2022-10-17T11:19:34.873Z,18.52
2022-10-17T11:21:34.755Z,18.56
2022-10-17T11:23:41.977Z,18.51
2022-10-17T11:25:14.279Z,18.54
2022-10-17T11:26:53.984Z,18.58
2022-10-17T11:28:26.793Z,18.59
2022-10-17T11:29:59.564Z,18.64
2022-10-17T11:31:35.902Z,18.71
2022-10-17T11:33:14.207Z,18.73
2022-10-17T11:34:50.272Z,18.72
2022-10-17T11:36:27.629Z,18.73
2022-10-17T11:38:31.082Z,18.76
2022-10-17T11:40:04.989Z,18.74
2022-10-17T11:41:52.599Z,18.79
2022-10-17T11:43:34.468Z,18.82
2022-10-17T11:45:12.282Z,18.87
2022-10-17T11:46:47.149Z,18.97
2022-10-17T11:48:56.286Z,18.94
2022-10-17T11:52:55.894Z,18.98
2022-10-17T11:54:34.482Z,18.94
2022-10-17T11:56:07.417Z,18.96
2022-10-17T11:57:58.273Z,18.96
2022-10-17T11:59:48.571Z,18.95
2022-10-17T12:01:43.408Z,19.01
2022-10-17T12:03:41.746Z,19.04
2022-10-17T12:05:28.101Z,19.09
2022-10-17T12:07:05.327Z,19.09
2022-10-17T12:08:54.496Z,19.07
2022-10-17T12:10:44.018Z,19.05
2022-10-17T12:12:30.704Z,19.08
2022-10-17T12:14:05.763Z,19.08
2022-10-17T12:15:39.042Z,19.13
2022-10-17T12:17:39.579Z,19.20
2022-10-17T12:19:21.551Z,19.11
2022-10-17T12:20:58.462Z,19.13
2022-10-17T12:22:30.924Z,19.12
2022-10-17T12:24:03.473Z,19.17
2022-10-17T12:27:35.998Z,19.24
2022-10-17T12:29:27.651Z,19.25
2022-10-17T12:31:06.844Z,19.24
2022-10-17T12:33:12.416Z,19.29
2022-10-17T12:34:55.149Z,19.30
2022-10-17T12:36:27.301Z,19.30
2022-10-17T12:38:16.691Z,19.40
2022-10-17T12:39:48.922Z,19.32
2022-10-17T12:41:41.574Z,19.32
2022-10-17T12:43:16.571Z,19.27
2022-10-17T12:44:51.177Z,19.29
2022-10-17T12:46:42.029Z,19.44
2022-10-17T12:48:34.230Z,19.46
2022-10-17T12:50:44.976Z,19.45
2022-10-17T12:52:35.504Z,19.46
2022-10-17T12:54:13.028Z,19.46
2022-10-17T12:55:45.262Z,19.30
2022-10-17T12:57:41.843Z,19.37
2022-10-17T12:59:25.820Z,19.38
2022-10-17T13:01:22.540Z,19.32
2022-10-17T13:02:55.082Z,19.39
2022-10-17T13:04:28.361Z,19.28
2022-10-17T13:06:01.325Z,19.35
2022-10-17T13:07:35.470Z,19.27
2022-10-17T13:09:30.593Z,19.32
2022-10-17T13:11:03.342Z,19.30
2022-10-17T13:12:41.181Z,19.25
2022-10-17T13:14:15.113Z,19.26
2022-10-17T13:15:49.788Z,19.20
2022-10-17T13:17:31.139Z,19.20
2022-10-17T13:19:13.344Z,19.19
2022-10-17T13:20:56.028Z,19.25
2022-10-17T13:22:35.907Z,19.25
2022-10-17T13:24:28.676Z,19.30
2022-10-17T13:26:10.698Z,19.23
2022-10-17T13:27:43.608Z,19.24
2022-10-17T13:29:16.775Z,19.27
2022-10-17T13:30:49.897Z,19.27
2022-10-17T13:32:23.019Z,19.26
2022-10-17T13:34:00.354Z,19.27
2022-10-17T13:35:59.375Z,19.26
2022-10-17T13:37:31.751Z,19.14
2022-10-17T13:39:12.337Z,19.10
2022-10-17T13:40:50.374Z,19.13
2022-10-17T13:42:38.676Z,19.12
2022-10-17T13:44:20.441Z,19.09
2022-10-17T13:45:54.844Z,18.99
2022-10-17T13:47:33.707Z,19.01
2022-10-17T13:49:33.448Z,19.03
2022-10-17T13:51:10.319Z,19.02
2022-10-17T13:52:43.469Z,19.01
2022-10-17T13:54:38.287Z,19.02
2022-10-17T13:56:27.998Z,18.99
2022-10-17T13:58:14.668Z,18.96
2022-10-17T13:59:50.190Z,18.91
2022-10-17T14:02:58.559Z,18.81
2022-10-17T14:04:44.803Z,18.83
2022-10-17T14:06:24.894Z,18.83
2022-10-17T14:08:21.918Z,18.82
2022-10-17T14:09:52.615Z,18.76
2022-10-17T14:11:29.894Z,18.72
2022-10-17T14:13:04.721Z,18.59
2022-10-17T14:14:51.976Z,18.58
2022-10-17T14:16:36.086Z,18.62
2022-10-17T14:18:09.346Z,18.59
2022-10-17T14:19:41.220Z,18.58
2022-10-17T14:21:40.551Z,18.51
2022-10-17T14:23:27.943Z,18.47
2022-10-17T14:25:02.446Z,18.41
2022-10-17T14:26:37.703Z,18.40
2022-10-17T14:28:13.016Z,18.43
2022-10-17T14:29:53.412Z,18.40
2022-10-17T14:49:51.222Z,17.83
2022-10-17T14:51:23.968Z,17.77
2022-10-17T14:53:11.409Z,17.74
2022-10-17T14:54:46.747Z,17.68
2022-10-17T14:56:24.748Z,17.62
2022-10-17T14:57:57.398Z,17.54
2022-10-17T14:59:52.892Z,17.48
2022-10-17T15:01:21.943Z,17.42
2022-10-17T15:02:55.976Z,17.37
2022-10-17T15:04:28.529Z,17.29
2022-10-17T15:06:15.991Z,17.25
2022-10-17T15:07:48.150Z,17.15
2022-10-17T15:09:20.208Z,17.06
2022-10-17T15:10:53.047Z,17.00
2022-10-17T15:12:26.135Z,16.94
2022-10-17T15:13:58.222Z,16.84
2022-10-17T15:15:31.252Z,16.74
2022-10-17T15:18:36.276Z,16.57
2022-10-17T15:20:17.481Z,16.59
2022-10-17T15:21:49.948Z,16.47
2022-10-17T15:23:22.117Z,16.40
2022-10-17T15:24:54.470Z,16.32
2022-10-17T15:26:29.765Z,16.27
2022-10-17T15:28:03.448Z,16.19
2022-10-17T15:29:35.933Z,16.08
2022-10-17T15:31:11.965Z,16.03
2022-10-17T15:32:44.273Z,15.90
2022-10-17T15:34:16.665Z,15.78
2022-10-17T15:35:49.378Z,15.70
2022-10-17T15:37:24.740Z,15.61
2022-10-17T15:39:00.260Z,15.52
2022-10-17T15:40:32.605Z,15.37
2022-10-17T15:42:09.080Z,15.29
2022-10-17T15:43:41.529Z,15.14
2022-10-17T15:45:16.646Z,15.06
2022-10-17T15:46:49.030Z,14.91
2022-10-17T15:48:28.065Z,14.83
2022-10-17T15:50:00.955Z,14.71
2022-10-17T15:51:33.162Z,14.56
2022-10-17T15:53:08.946Z,14.46
2022-10-17T15:54:41.400Z,14.33
2022-10-17T15:56:24.699Z,14.26
2022-10-17T15:57:57.047Z,14.08
2022-10-17T15:59:32.858Z,14.01
2022-10-17T16:01:05.831Z,13.87
2022-10-17T16:02:38.345Z,13.76
2022-10-17T16:04:13.586Z,13.68
2022-10-17T16:05:45.785Z,13.57
2022-10-17T16:07:21.824Z,13.49
2022-10-17T16:08:54.108Z,13.33
2022-10-17T16:10:26.613Z,13.27
2022-10-17T16:11:58.845Z,13.13
2022-10-17T16:13:31.104Z,13.01
2022-10-17T16:15:18.138Z,12.94
2022-10-17T16:16:50.696Z,12.83
2022-10-17T16:18:23.212Z,12.70
2022-10-17T16:19:55.615Z,12.59
2022-10-17T16:23:04.911Z,12.38
2022-10-17T16:24:37.259Z,12.30
2022-10-17T16:26:10.186Z,12.16
2022-10-17T16:27:42.465Z,12.05
2022-10-17T16:29:14.726Z,11.95
2022-10-17T16:30:47.302Z,11.87
2022-10-17T16:32:19.646Z,11.79
2022-10-17T16:33:54.213Z,11.78
2022-10-17T16:35:33.147Z,11.73
2022-10-17T16:37:09.163Z,11.66
2022-10-17T16:38:41.695Z,11.58
2022-10-17T16:40:14.458Z,11.50
2022-10-17T16:41:46.725Z,11.34
2022-10-17T16:43:19.069Z,11.21
2022-10-17T16:44:52.341Z,11.13
2022-10-17T16:46:29.060Z,11.01
2022-10-17T16:48:01.297Z,10.86
2022-10-17T16:49:33.536Z,10.78
2022-10-17T16:51:06.097Z,10.72
2022-10-17T16:52:38.578Z,10.69
2022-10-17T16:54:11.056Z,10.69
2022-10-17T16:55:43.383Z,10.66
2022-10-17T16:57:15.883Z,10.62
2022-10-17T16:58:48.982Z,10.55
2022-10-17T17:00:21.312Z,10.41
2022-10-17T17:01:53.589Z,10.28
2022-10-17T17:03:25.930Z,10.19
2022-10-17T17:04:58.209Z,10.10
2022-10-17T17:06:31.025Z,10.06
2022-10-17T17:08:04.938Z,10.00
2022-10-17T17:09:40.414Z,10.00
2022-10-17T17:11:13.199Z,9.97
2022-10-17T17:12:45.721Z,9.86
2022-10-17T17:14:18.071Z,9.82
2022-10-17T17:15:54.076Z,9.79
2022-10-17T17:17:36.866Z,9.74
2022-10-17T17:19:17.593Z,9.68
2022-10-17T17:20:49.985Z,9.61
2022-10-17T17:22:22.906Z,9.60
2022-10-17T17:23:58.869Z,9.59
2022-10-17T17:25:31.252Z,9.52
2022-10-17T17:27:03.511Z,9.43
2022-10-17T17:28:36.311Z,9.32
2022-10-17T17:30:09.122Z,9.22
2022-10-17T17:31:41.717Z,9.09
2022-10-17T17:33:14.025Z,8.97
2022-10-17T17:34:46.228Z,8.91
2022-10-17T17:36:20.948Z,8.91
2022-10-17T17:37:53.529Z,8.86
2022-10-17T17:39:25.728Z,8.80
2022-10-17T17:40:58.462Z,8.73
2022-10-17T17:42:30.602Z,8.69
2022-10-17T17:44:03.732Z,8.68
2022-10-17T17:45:36.046Z,8.66
2022-10-17T17:47:08.167Z,8.68
2022-10-17T17:48:41.640Z,8.67
2022-10-17T17:50:13.826Z,8.69
2022-10-17T17:51:46.988Z,8.62
2022-10-17T17:53:19.369Z,8.56
2022-10-17T17:54:51.623Z,8.55
2022-10-17T17:56:27.105Z,8.53
2022-10-17T17:57:59.348Z,8.47
2022-10-17T17:59:31.905Z,8.42
2022-10-17T18:01:13.277Z,8.40
2022-10-17T18:02:47.897Z,8.31
2022-10-17T18:04:19.961Z,8.29
2022-10-17T18:05:52.012Z,8.23
2022-10-17T18:07:24.607Z,8.19
2022-10-17T18:08:58.503Z,8.20
2022-10-17T18:12:10.101Z,8.02
2022-10-17T18:13:42.197Z,7.93
2022-10-17T18:15:15.052Z,7.81
2022-10-17T18:16:47.258Z,7.67
2022-10-17T18:18:19.441Z,7.55
2022-10-17T18:19:52.659Z,7.49
2022-10-17T18:21:24.781Z,7.40
2022-10-17T18:23:00.512Z,7.40
2022-10-17T18:24:35.501Z,7.39
2022-10-17T18:26:08.250Z,7.38
2022-10-17T18:27:40.912Z,7.38
2022-10-17T18:29:13.342Z,7.31
2022-10-17T18:30:45.667Z,7.24
2022-10-17T18:32:18.070Z,7.18
2022-10-17T18:33:53.942Z,7.18
2022-10-17T18:35:26.168Z,7.08
2022-10-17T18:36:59.186Z,7.05
2022-10-17T18:38:31.638Z,7.03
2022-10-17T18:40:04.005Z,7.02
2022-10-17T18:41:36.455Z,6.98
2022-10-17T18:43:08.805Z,6.96
2022-10-17T18:44:40.854Z,6.90
2022-10-17T18:46:18.326Z,6.88
2022-10-17T18:47:53.136Z,6.85
2022-10-17T18:49:25.916Z,6.82
2022-10-17T18:50:58.037Z,6.77
2022-10-17T18:52:30.321Z,6.76
2022-10-17T18:54:04.015Z,6.74
2022-10-17T18:55:40.118Z,6.71
2022-10-17T18:57:12.461Z,6.67
2022-10-17T18:58:45.186Z,6.66
2022-10-17T19:00:19.823Z,6.64
2022-10-17T19:01:52.058Z,6.55
2022-10-17T19:03:24.388Z,6.47
2022-10-17T19:04:56.654Z,6.46
2022-10-17T19:06:32.214Z,6.41
2022-10-17T19:08:04.261Z,6.36
2022-10-17T19:09:36.251Z,6.32
2022-10-17T19:11:11.447Z,6.33
2022-10-17T19:12:43.462Z,6.30
2022-10-17T19:14:15.860Z,6.31
2022-10-17T19:15:48.154Z,6.31
2022-10-17T19:17:20.643Z,6.28
2022-10-17T19:19:04.608Z,6.26
2022-10-17T19:20:36.533Z,6.21
2022-10-17T19:22:09.864Z,6.10
2022-10-17T19:23:42.963Z,6.07
2022-10-17T19:25:15.198Z,6.00
2022-10-17T19:26:50.479Z,5.98
2022-10-17T19:28:22.493Z,5.96
2022-10-17T19:29:54.610Z,5.95
2022-10-17T19:31:27.848Z,5.95
2022-10-17T19:32:59.979Z,5.94
2022-10-17T19:34:32.142Z,5.93
2022-10-17T19:36:08.106Z,5.95
2022-10-17T19:37:40.519Z,5.88
2022-10-17T19:39:18.515Z,5.88
2022-10-17T19:40:51.001Z,5.83
2022-10-17T19:42:23.362Z,5.80
2022-10-17T19:43:55.664Z,5.83
2022-10-17T19:45:27.721Z,5.80
2022-10-17T19:46:59.873Z,5.76
2022-10-17T19:48:34.544Z,5.74
2022-10-17T19:50:07.257Z,5.67
2022-10-17T19:51:39.519Z,5.66
2022-10-17T19:53:11.535Z,5.62
2022-10-17T19:54:43.741Z,5.61
2022-10-17T19:56:19.097Z,5.57
2022-10-17T19:57:51.521Z,5.53
2022-10-17T20:01:01.491Z,5.53
2022-10-17T20:02:33.892Z,5.52
2022-10-17T20:04:07.475Z,5.53
2022-10-17T20:05:39.343Z,5.58
2022-10-17T20:07:11.853Z,5.51
2022-10-17T20:08:47.266Z,5.47
2022-10-17T20:10:19.555Z,5.46
2022-10-17T20:11:51.923Z,5.43
2022-10-17T20:13:24.526Z,5.38
2022-10-17T20:14:56.612Z,5.33
2022-10-17T20:16:33.047Z,5.30
2022-10-17T20:18:07.254Z,5.23
2022-10-17T20:19:39.382Z,5.20
2022-10-17T20:21:14.191Z,5.15
2022-10-17T20:22:46.361Z,5.10
2022-10-17T20:24:18.598Z,5.07
2022-10-17T20:26:13.289Z,5.07
2022-10-17T20:27:51.003Z,4.97
2022-10-17T20:29:24.395Z,4.91
2022-10-17T20:30:56.626Z,4.91
2022-10-17T20:32:30.463Z,4.89
2022-10-17T20:34:02.839Z,4.84
2022-10-17T20:35:34.906Z,4.83
2022-10-17T20:37:07.047Z,4.83
2022-10-17T20:38:39.452Z,4.83
2022-10-17T20:40:33.710Z,4.83
2022-10-17T20:42:04.007Z,4.78
2022-10-17T20:43:36.419Z,4.76
2022-10-17T20:45:08.780Z,4.72
2022-10-17T20:46:48.779Z,4.68
2022-10-17T20:48:29.607Z,4.71
2022-10-17T20:50:01.752Z,4.72
2022-10-17T20:51:34.487Z,4.74
2022-10-17T20:53:31.833Z,4.75
2022-10-17T20:54:58.823Z,4.72
2022-10-17T20:56:32.247Z,4.72
2022-10-17T20:58:04.523Z,4.72
2022-10-17T20:59:38.048Z,4.73
2022-10-17T21:01:11.229Z,4.70
2022-10-17T21:02:43.342Z,4.65
2022-10-17T21:06:10.919Z,4.71
2022-10-17T21:07:43.398Z,4.73
2022-10-17T21:09:15.642Z,4.75
2022-10-17T21:10:47.772Z,4.79
2022-10-17T21:12:30.921Z,4.80
2022-10-17T21:14:12.678Z,4.82
2022-10-17T21:15:44.867Z,4.84
2022-10-17T21:17:17.024Z,4.83
2022-10-17T21:18:49.740Z,4.78
2022-10-17T21:20:22.250Z,4.83
2022-10-17T21:21:54.254Z,4.79
2022-10-17T21:23:26.256Z,4.77
2022-10-17T21:24:58.621Z,4.77
2022-10-17T21:26:33.284Z,4.77
2022-10-17T21:28:05.519Z,4.73
2022-10-17T21:29:37.718Z,4.65
2022-10-17T21:31:14.600Z,4.63
2022-10-17T21:32:51.543Z,4.60
2022-10-17T21:34:25.341Z,4.58
2022-10-17T21:35:57.389Z,4.56
2022-10-17T21:37:29.985Z,4.56
2022-10-17T21:39:02.205Z,4.52
2022-10-17T21:40:34.348Z,4.56
2022-10-17T21:42:06.583Z,4.56
2022-10-17T21:43:40.298Z,4.55
2022-10-17T21:45:15.707Z,4.56
2022-10-17T21:46:52.994Z,4.53
2022-10-17T21:48:25.057Z,4.53
2022-10-17T21:49:57.177Z,4.52